ENHD/HAU METAR and TAF weather

Enter ICAO airport designator
Station Type Date Time Source
ENHD METAR 2022/01/29 12:20 UTC NOAA

ENHD 291220Z 26036G46KT 7000 VCSH FEW010 SCT022 BKN030 08/05 Q0982


Station Type Date Time Source
ENHD Decoded METAR 2022/01/29 12:20 UTC NOAA

Haugesund / Karmoy, Norway (ENHD) 59-21N 005-13E 24M
Jan 29, 2022 - 07:20 AM EST / 2022.01.29 1220 UTC
Wind: from the W (260 degrees) at 41 MPH (36 KT) gusting to 53 MPH (46 KT):0
Visibility: 4 mile(s):0
Sky conditions: mostly cloudy
Weather: showers in the vicinity
Temperature: 46 F (8 C)
Dew Point: 41 F (5 C)
Relative Humidity: 81%
Pressure (altimeter): 29.00 in. Hg (0982 hPa)
ob: ENHD 291220Z 26036G46KT 7000 VCSH FEW010 SCT022 BKN030 08/05 Q0982
cycle: 12

Station Type Date Time Source
ENHD TAF UTC NOAA

Error!

Example: see airport list